METAR & TAF

RJAH 262000Z 01007KT 6000 -DZ FEW006 BKN010 OVC015 21/19 Q1010
RJAH 261900Z 01003KT 9999 -SHRA FEW010 BKN015 BKN030 21/19 Q1010
RJAH 261851Z 36003KT 9999 -SHRA FEW010 BKN015 BKN030 21/19 Q1010 RMK 1ST010 6CU015 7CU030 A2983
RJAH 261800Z 35005KT 9999 FEW010 BKN015 BKN040 21/19 Q1010
RJAH 261700Z 35006KT 9999 -SHRA FEW010 BKN015 BKN040 21/19 Q1010
RJAH 261633Z 36006KT 9999 -SHRA FEW012 BKN015 BKN040 21/19 Q1010 RMK 1CU012 5CU015 7SC040 A2983
RJAH 261600Z 34004KT 9999 SCT015 BKN040 22/19 Q1010

TAF RJAH 261709Z 2618/2800 03010KT 8000 -RA FEW006 BKN012
  TEMPO 2618/2700 FEW005 BKN008
  TEMPO 2700/2706 4000 -RA BR FEW003 BKN005
  TEMPO 2706/2712 4000 BR FEW005 BKN008
  TEMPO 2718/2800 4000 BR FEW003 BKN005